createdAt,value
2022-11-03T00:02:09.888Z,2.53
2022-11-03T00:04:37.473Z,3.20
2022-11-03T00:07:05.331Z,3.70
2022-11-03T00:09:32.981Z,2.57
2022-11-03T00:12:01.914Z,4.03
2022-11-03T00:14:29.778Z,3.53
2022-11-03T00:16:57.380Z,3.57
2022-11-03T00:19:25.235Z,4.20
2022-11-03T00:21:52.952Z,3.67
2022-11-03T00:24:20.938Z,3.50
2022-11-03T00:26:48.559Z,3.87
2022-11-03T00:29:16.588Z,3.70
2022-11-03T00:31:44.982Z,4.03
2022-11-03T00:34:13.123Z,4.10
2022-11-03T00:36:44.683Z,4.40
2022-11-03T00:39:13.376Z,3.97
2022-11-03T00:41:41.457Z,3.97
2022-11-03T00:44:10.827Z,4.70
2022-11-03T00:46:38.515Z,4.33
2022-11-03T00:49:06.396Z,4.03
2022-11-03T00:51:37.024Z,4.30
2022-11-03T00:54:06.006Z,3.83
2022-11-03T00:56:38.961Z,4.20
2022-11-03T00:59:08.346Z,4.13
2022-11-03T01:01:45.259Z,4.23
2022-11-03T01:04:33.898Z,4.53
2022-11-03T01:07:01.943Z,5.30
2022-11-03T01:09:33.438Z,4.10
2022-11-03T01:12:17.417Z,4.00
2022-11-03T01:14:47.774Z,3.80
2022-11-03T01:17:23.452Z,4.63
2022-11-03T01:19:51.841Z,5.00
2022-11-03T01:22:19.913Z,4.37
2022-11-03T01:24:48.058Z,4.83
2022-11-03T01:27:17.312Z,4.97
2022-11-03T01:29:45.167Z,4.30
2022-11-03T01:32:13.240Z,7.60
2022-11-03T01:34:41.216Z,7.37
2022-11-03T01:37:09.038Z,7.23
2022-11-03T01:39:36.884Z,9.27
2022-11-03T01:42:04.579Z,7.70
2022-11-03T01:44:40.567Z,6.63
2022-11-03T01:47:08.123Z,8.70
2022-11-03T01:49:50.547Z,10.80
2022-11-03T01:52:23.937Z,9.90
2022-11-03T01:54:57.995Z,9.50
2022-11-03T01:57:28.072Z,5.07
2022-11-03T01:59:58.175Z,5.83
2022-11-03T02:02:27.460Z,4.37
2022-11-03T02:04:56.704Z,6.00
2022-11-03T02:07:30.061Z,5.93
2022-11-03T02:09:58.034Z,5.03
2022-11-03T02:12:25.871Z,5.63
2022-11-03T02:14:57.414Z,5.23
2022-11-03T02:17:26.851Z,5.53
2022-11-03T02:20:00.197Z,5.87
2022-11-03T02:22:33.572Z,7.07
2022-11-03T02:25:12.673Z,5.90
2022-11-03T02:27:40.373Z,6.20
2022-11-03T02:30:08.462Z,6.40
2022-11-03T02:32:56.379Z,7.10
2022-11-03T02:35:24.293Z,7.00
2022-11-03T02:37:55.364Z,6.37
2022-11-03T02:40:31.350Z,7.13
2022-11-03T02:42:59.976Z,7.60
2022-11-03T02:45:28.737Z,7.53
2022-11-03T02:47:59.333Z,7.67
2022-11-03T02:50:28.236Z,7.50
2022-11-03T02:52:56.115Z,7.33
2022-11-03T02:55:33.383Z,7.00
2022-11-03T02:58:04.015Z,8.47
2022-11-03T03:00:33.768Z,6.97
2022-11-03T03:03:04.863Z,7.77
2022-11-03T03:05:34.862Z,8.47
2022-11-03T03:08:04.999Z,8.50
2022-11-03T03:10:39.010Z,7.67
2022-11-03T03:13:08.449Z,8.83
2022-11-03T03:15:42.603Z,7.83
2022-11-03T03:18:13.029Z,8.30
2022-11-03T03:20:46.717Z,8.83
2022-11-03T03:23:22.306Z,9.90
2022-11-03T03:25:53.886Z,9.73
2022-11-03T03:28:26.137Z,10.10
2022-11-03T03:30:55.742Z,8.67
2022-11-03T03:33:23.683Z,9.30
2022-11-03T03:35:52.014Z,8.90
2022-11-03T03:38:25.856Z,9.83
2022-11-03T03:40:56.451Z,9.20
2022-11-03T03:43:25.441Z,11.43
2022-11-03T03:45:55.810Z,10.90
2022-11-03T03:48:23.697Z,11.43
2022-11-03T03:50:51.722Z,10.77
2022-11-03T03:53:20.030Z,12.67
2022-11-03T03:55:50.295Z,12.70
2022-11-03T03:58:18.100Z,11.83
2022-11-03T04:00:46.076Z,14.03
2022-11-03T04:03:18.391Z,13.00
2022-11-03T04:05:46.715Z,13.77
2022-11-03T04:08:15.151Z,13.57
2022-11-03T04:11:02.733Z,14.17
2022-11-03T04:13:50.961Z,15.17
2022-11-03T04:16:37.333Z,13.47
2022-11-03T04:19:24.241Z,13.63
2022-11-03T04:22:10.622Z,14.17
2022-11-03T04:24:38.534Z,14.23
2022-11-03T04:27:32.495Z,12.33
2022-11-03T04:30:08.605Z,11.80
2022-11-03T04:32:36.666Z,12.27
2022-11-03T04:35:17.838Z,13.57
2022-11-03T04:37:47.865Z,12.07
2022-11-03T04:40:17.336Z,12.50
2022-11-03T04:42:45.491Z,12.10
2022-11-03T04:45:15.733Z,12.97
2022-11-03T04:47:43.361Z,12.27
2022-11-03T04:50:16.033Z,12.70
2022-11-03T04:52:43.897Z,12.63
2022-11-03T04:55:15.627Z,11.17
2022-11-03T04:57:43.973Z,11.57
2022-11-03T05:00:15.170Z,11.23
2022-11-03T05:02:43.270Z,12.20
2022-11-03T05:05:16.276Z,12.23
2022-11-03T05:07:44.305Z,12.07
2022-11-03T05:10:13.858Z,12.13
2022-11-03T05:12:41.906Z,12.17
2022-11-03T05:15:23.549Z,12.03
2022-11-03T05:17:51.520Z,11.73
2022-11-03T05:20:49.726Z,13.03
2022-11-03T05:23:18.984Z,12.90
2022-11-03T05:25:48.539Z,13.03
2022-11-03T05:28:25.073Z,12.33
2022-11-03T05:30:53.140Z,13.73
2022-11-03T05:33:31.503Z,13.67
2022-11-03T05:36:09.466Z,12.97
2022-11-03T05:38:37.285Z,10.90
2022-11-03T05:41:09.598Z,12.23
2022-11-03T05:43:37.473Z,11.03
2022-11-03T05:48:40.010Z,12.10
2022-11-03T05:51:25.658Z,10.93
2022-11-03T05:53:58.471Z,11.93
2022-11-03T05:56:26.559Z,11.87
2022-11-03T05:58:57.293Z,12.63
2022-11-03T06:01:38.278Z,12.60
2022-11-03T06:04:26.986Z,12.47
2022-11-03T06:07:10.752Z,13.57
2022-11-03T06:09:38.950Z,12.67
2022-11-03T06:12:07.404Z,11.70
2022-11-03T06:14:37.184Z,11.67
2022-11-03T06:17:06.243Z,11.97
2022-11-03T06:19:36.014Z,13.10
2022-11-03T06:22:09.209Z,11.07
2022-11-03T06:24:36.893Z,11.03
2022-11-03T06:27:04.911Z,11.20
2022-11-03T06:29:34.013Z,12.87
2022-11-03T06:32:03.217Z,12.03
2022-11-03T06:34:35.251Z,12.07
2022-11-03T06:37:13.493Z,10.77
2022-11-03T06:39:41.729Z,10.50
2022-11-03T06:42:13.785Z,11.23
2022-11-03T06:44:42.570Z,11.73
2022-11-03T06:47:19.791Z,10.63
2022-11-03T06:49:48.495Z,10.47
2022-11-03T06:52:26.116Z,19.33
2022-11-03T06:55:01.255Z,11.33
2022-11-03T06:57:32.352Z,11.97
2022-11-03T07:00:28.114Z,13.40
2022-11-03T07:02:51.226Z,12.97
2022-11-03T07:05:21.959Z,11.90
2022-11-03T07:07:50.179Z,11.17
2022-11-03T07:10:17.853Z,11.63
2022-11-03T07:12:45.864Z,11.70
2022-11-03T07:15:25.476Z,11.87
2022-11-03T07:17:53.721Z,12.53
2022-11-03T07:20:21.885Z,13.17
2022-11-03T07:22:50.276Z,11.70
2022-11-03T07:25:19.978Z,10.70
2022-11-03T07:27:52.496Z,12.43
2022-11-03T07:30:21.533Z,11.90
2022-11-03T07:32:58.139Z,12.70
2022-11-03T07:35:37.548Z,12.40
2022-11-03T07:38:20.006Z,13.97
2022-11-03T07:40:47.993Z,15.70
2022-11-03T07:43:19.039Z,14.57
2022-11-03T07:45:53.543Z,13.20
2022-11-03T07:48:29.382Z,13.47
2022-11-03T07:50:58.102Z,12.00
2022-11-03T07:53:32.612Z,13.87
2022-11-03T07:56:00.747Z,11.70
2022-11-03T07:58:28.899Z,12.67
2022-11-03T08:00:57.987Z,12.27
2022-11-03T08:03:37.485Z,10.47
2022-11-03T08:06:07.531Z,10.73
2022-11-03T08:08:38.606Z,9.93
2022-11-03T08:11:07.058Z,11.00
2022-11-03T08:13:36.456Z,9.20
2022-11-03T08:16:04.855Z,9.30
2022-11-03T08:18:33.220Z,9.23
2022-11-03T08:21:01.827Z,8.70
2022-11-03T08:23:30.224Z,8.23
2022-11-03T08:25:58.359Z,7.93
2022-11-03T08:28:26.542Z,7.00
2022-11-03T08:30:54.241Z,7.60
2022-11-03T08:33:22.330Z,6.90
2022-11-03T08:35:50.214Z,6.37
2022-11-03T08:38:18.277Z,7.17
2022-11-03T08:40:46.007Z,5.97
2022-11-03T08:43:15.151Z,5.27
2022-11-03T08:45:42.878Z,4.90
2022-11-03T08:48:10.854Z,4.90
2022-11-03T08:50:38.576Z,4.70
2022-11-03T08:53:06.498Z,4.80
2022-11-03T08:55:34.434Z,4.75
2022-11-03T08:58:02.426Z,3.80
2022-11-03T09:00:30.097Z,3.97
2022-11-03T09:02:57.999Z,3.75
2022-11-03T09:05:25.826Z,3.97
2022-11-03T09:10:42.611Z,3.80
2022-11-03T09:13:11.143Z,4.03
2022-11-03T09:15:38.990Z,4.22
2022-11-03T09:18:07.109Z,3.90
2022-11-03T09:20:35.303Z,4.17
2022-11-03T09:23:03.162Z,5.33
2022-11-03T09:25:31.126Z,4.60
2022-11-03T09:27:58.796Z,3.77
2022-11-03T09:30:26.694Z,3.73
2022-11-03T09:32:54.256Z,4.03
2022-11-03T09:35:22.364Z,3.63
2022-11-03T09:37:50.224Z,3.37
2022-11-03T09:40:18.481Z,10.50
2022-11-03T09:42:46.135Z,9.17
2022-11-03T09:45:14.068Z,5.27
2022-11-03T09:47:42.293Z,7.17
2022-11-03T09:50:15.256Z,6.18
2022-11-03T09:52:46.188Z,4.47
2022-11-03T09:55:25.547Z,4.15
2022-11-03T09:57:53.856Z,3.50
2022-11-03T10:00:23.227Z,3.30
2022-11-03T10:02:51.409Z,3.22
2022-11-03T10:05:21.539Z,3.45
2022-11-03T10:07:49.508Z,3.67
2022-11-03T10:10:20.365Z,3.75
2022-11-03T10:12:50.093Z,3.47
2022-11-03T10:15:18.447Z,3.72
2022-11-03T10:17:46.710Z,3.63
2022-11-03T10:20:15.778Z,3.45
2022-11-03T10:22:45.199Z,3.42
2022-11-03T10:25:36.204Z,3.30
2022-11-03T10:28:18.104Z,3.40
2022-11-03T10:31:10.736Z,3.90
2022-11-03T10:33:52.111Z,3.20
2022-11-03T10:36:20.536Z,3.10
2022-11-03T10:38:49.492Z,3.33
2022-11-03T10:41:17.619Z,3.58
2022-11-03T10:43:46.405Z,3.10
2022-11-03T10:49:10.496Z,3.55
2022-11-03T10:51:39.073Z,4.10
2022-11-03T10:54:11.230Z,3.03
2022-11-03T10:56:39.375Z,3.50
2022-11-03T10:59:07.340Z,3.53
2022-11-03T11:01:35.620Z,3.45
2022-11-03T11:04:05.228Z,3.30
2022-11-03T11:06:34.536Z,3.83
2022-11-03T11:09:05.521Z,3.53
2022-11-03T11:11:34.058Z,3.60
2022-11-03T11:14:37.464Z,3.38
2022-11-03T11:17:06.880Z,3.13
2022-11-03T11:20:13.086Z,3.33
2022-11-03T11:22:41.407Z,3.47
2022-11-03T11:25:09.238Z,3.75
2022-11-03T11:27:37.779Z,3.80
2022-11-03T11:30:27.504Z,4.30
2022-11-03T11:33:14.547Z,4.10
2022-11-03T11:35:42.305Z,4.00
2022-11-03T11:38:47.367Z,3.33
2022-11-03T11:41:15.785Z,2.75
2022-11-03T11:43:44.808Z,3.45
2022-11-03T11:46:37.585Z,3.75
2022-11-03T11:49:06.209Z,2.80
2022-11-03T11:51:38.012Z,2.35
2022-11-03T11:54:18.387Z,2.72
2022-11-03T11:56:49.297Z,3.03
2022-11-03T11:59:25.708Z,2.88
2022-11-03T12:01:57.484Z,2.50
2022-11-03T12:04:31.739Z,2.85
2022-11-03T12:06:59.833Z,2.92
2022-11-03T12:09:28.742Z,3.03
2022-11-03T12:12:07.959Z,2.30
2022-11-03T12:14:37.987Z,2.22
2022-11-03T12:17:17.331Z,2.78
2022-11-03T12:19:47.122Z,2.78
2022-11-03T12:22:23.711Z,2.47
2022-11-03T12:24:53.557Z,3.00
2022-11-03T12:27:41.654Z,3.15
2022-11-03T12:30:16.112Z,2.58
2022-11-03T12:32:43.828Z,3.15
2022-11-03T12:35:13.765Z,3.00
2022-11-03T12:37:42.286Z,2.58
2022-11-03T12:40:12.268Z,2.88
2022-11-03T12:42:41.299Z,2.58
2022-11-03T12:45:09.357Z,2.90
2022-11-03T12:47:36.754Z,1.98
2022-11-03T12:50:04.581Z,3.28
2022-11-03T12:52:31.846Z,2.88
2022-11-03T12:54:59.369Z,2.63
2022-11-03T12:57:26.654Z,3.00
2022-11-03T12:59:54.750Z,3.25
2022-11-03T13:02:22.313Z,3.60
2022-11-03T13:04:50.192Z,3.35
2022-11-03T13:07:24.105Z,3.15
2022-11-03T13:09:54.390Z,3.42
2022-11-03T13:12:35.320Z,3.22
2022-11-03T13:15:06.031Z,3.20
2022-11-03T13:17:52.081Z,3.20
2022-11-03T13:20:22.239Z,3.05
2022-11-03T13:22:49.842Z,3.10
2022-11-03T13:25:18.967Z,2.85
2022-11-03T13:27:46.845Z,2.60
2022-11-03T13:30:14.594Z,3.35
2022-11-03T13:32:42.327Z,3.25
2022-11-03T13:35:13.711Z,2.50
2022-11-03T13:37:42.294Z,3.30
2022-11-03T13:40:29.221Z,2.60
2022-11-03T13:42:59.970Z,2.92
2022-11-03T13:45:27.787Z,3.00
2022-11-03T13:49:05.309Z,2.00
2022-11-03T13:50:42.982Z,2.30
2022-11-03T13:56:03.090Z,2.42
2022-11-03T14:01:23.637Z,3.05
2022-11-03T14:06:40.293Z,2.22
2022-11-03T14:09:07.732Z,2.67
2022-11-03T14:11:54.682Z,3.00
2022-11-03T14:14:22.455Z,3.65
2022-11-03T14:16:50.484Z,2.70
2022-11-03T14:19:18.252Z,3.33
2022-11-03T14:21:46.232Z,3.28
2022-11-03T14:24:14.009Z,4.43
2022-11-03T14:26:43.219Z,3.45
2022-11-03T14:29:11.550Z,3.20
2022-11-03T14:31:39.231Z,3.78
2022-11-03T14:34:06.551Z,3.33
2022-11-03T14:36:34.460Z,3.88
2022-11-03T14:39:02.491Z,3.88
2022-11-03T14:41:49.046Z,4.88
2022-11-03T14:44:16.709Z,4.47
2022-11-03T14:46:44.473Z,3.80
2022-11-03T14:49:11.879Z,3.60
2022-11-03T14:51:39.985Z,3.97
2022-11-03T14:54:08.617Z,27.37
2022-11-03T14:56:36.528Z,12.23
2022-11-03T14:59:04.695Z,8.73
2022-11-03T15:01:33.426Z,6.50
2022-11-03T15:04:01.788Z,6.97
2022-11-03T15:06:29.646Z,5.53
2022-11-03T15:08:57.874Z,6.50
2022-11-03T15:11:25.809Z,5.27
2022-11-03T15:13:55.497Z,4.73
2022-11-03T15:16:24.026Z,5.87
2022-11-03T15:18:52.129Z,5.63
2022-11-03T15:21:19.882Z,5.70
2022-11-03T15:26:35.890Z,14.47
2022-11-03T15:29:04.283Z,33.73
2022-11-03T15:31:32.127Z,60.20
2022-11-03T15:34:03.013Z,44.57
2022-11-03T15:36:34.485Z,53.13
2022-11-03T15:39:02.770Z,27.17
2022-11-03T15:41:30.860Z,12.13
2022-11-03T15:43:59.189Z,11.73
2022-11-03T15:46:27.396Z,10.90
2022-11-03T15:48:56.678Z,8.57
2022-11-03T15:51:24.640Z,10.30
2022-11-03T15:53:58.207Z,26.77
2022-11-03T15:56:29.848Z,23.13
2022-11-03T15:58:58.069Z,35.37
2022-11-03T16:01:26.082Z,36.30
2022-11-03T16:03:54.581Z,28.47
2022-11-03T16:06:35.105Z,28.20
2022-11-03T16:09:10.664Z,27.80
2022-11-03T16:11:38.398Z,24.10
2022-11-03T16:14:06.268Z,23.27
2022-11-03T16:16:34.589Z,25.90
2022-11-03T16:19:02.784Z,13.07
2022-11-03T16:21:31.602Z,11.17
2022-11-03T16:23:59.570Z,10.80
2022-11-03T16:26:28.091Z,8.60
2022-11-03T16:28:56.495Z,7.53
2022-11-03T16:31:24.925Z,8.00
2022-11-03T16:33:52.698Z,7.20
2022-11-03T16:36:21.064Z,11.83
2022-11-03T16:38:48.773Z,10.70
2022-11-03T16:41:17.210Z,12.90
2022-11-03T16:43:46.460Z,12.33
2022-11-03T16:46:14.632Z,19.13
2022-11-03T16:48:42.393Z,17.80
2022-11-03T16:51:10.652Z,15.93
2022-11-03T16:53:38.361Z,16.73
2022-11-03T16:56:06.434Z,24.37
2022-11-03T16:58:34.325Z,25.53
2022-11-03T17:01:03.536Z,22.97
2022-11-03T17:03:31.449Z,23.87
2022-11-03T17:05:59.656Z,34.87
2022-11-03T17:11:15.583Z,26.07
2022-11-03T17:13:43.463Z,27.93
2022-11-03T17:16:11.645Z,216.63
2022-11-03T17:18:39.403Z,84.70
2022-11-03T17:21:07.732Z,39.83
2022-11-03T17:23:35.406Z,45.47
2022-11-03T17:26:04.095Z,110.67
2022-11-03T17:28:31.906Z,188.60
2022-11-03T17:31:00.031Z,172.20
2022-11-03T17:33:27.922Z,108.73
2022-11-03T17:35:56.180Z,71.40
2022-11-03T17:38:25.210Z,38.67
2022-11-03T17:40:53.296Z,33.97
2022-11-03T17:43:30.438Z,25.43
2022-11-03T17:45:58.157Z,24.67
2022-11-03T17:48:26.099Z,19.33
2022-11-03T17:50:56.297Z,35.60
2022-11-03T17:53:28.631Z,48.10
2022-11-03T17:56:27.813Z,70.80
2022-11-03T17:58:47.285Z,117.33
2022-11-03T18:01:27.628Z,79.80
2022-11-03T18:03:55.426Z,86.33
2022-11-03T18:06:23.254Z,97.13
2022-11-03T18:08:50.988Z,112.23
2022-11-03T18:11:46.050Z,123.37
2022-11-03T18:14:13.800Z,99.70
2022-11-03T18:16:41.658Z,99.87
2022-11-03T18:19:14.829Z,115.53
2022-11-03T18:21:44.082Z,159.50
2022-11-03T18:24:13.020Z,128.60
2022-11-03T18:26:41.554Z,96.23
2022-11-03T18:29:09.742Z,101.63
2022-11-03T18:31:49.918Z,62.10
2022-11-03T18:34:24.310Z,74.50
2022-11-03T18:36:53.078Z,49.43
2022-11-03T18:39:28.015Z,48.50
2022-11-03T18:41:56.458Z,59.87
2022-11-03T18:44:28.645Z,66.00
2022-11-03T18:46:59.435Z,58.47
2022-11-03T18:49:27.943Z,45.67
2022-11-03T18:52:03.573Z,39.07
2022-11-03T18:54:34.438Z,44.33
2022-11-03T18:57:03.157Z,39.83
2022-11-03T18:59:37.873Z,32.27
2022-11-03T19:02:18.730Z,30.37
2022-11-03T19:04:47.160Z,35.73
2022-11-03T19:07:21.225Z,32.70
2022-11-03T19:09:49.380Z,28.67
2022-11-03T19:12:17.853Z,33.57
2022-11-03T19:14:46.416Z,40.37
2022-11-03T19:17:25.155Z,41.77
2022-11-03T19:19:53.995Z,33.17
2022-11-03T19:22:23.996Z,34.40
2022-11-03T19:24:52.472Z,41.20
2022-11-03T19:27:26.282Z,38.53
2022-11-03T19:29:55.064Z,48.67
2022-11-03T19:32:27.450Z,38.80
2022-11-03T19:35:00.923Z,34.33
2022-11-03T19:37:36.102Z,31.63
2022-11-03T19:40:09.283Z,33.70
2022-11-03T19:42:38.274Z,32.67
2022-11-03T19:50:50.983Z,48.37
2022-11-03T20:03:42.503Z,33.77
2022-11-03T20:06:16.684Z,33.17
2022-11-03T20:08:47.620Z,32.50
2022-11-03T20:11:17.250Z,33.07
2022-11-03T20:13:47.825Z,35.57
2022-11-03T20:16:18.022Z,37.57
2022-11-03T20:18:46.061Z,37.73
2022-11-03T20:21:18.179Z,37.73
2022-11-03T20:23:50.553Z,34.20
2022-11-03T20:26:23.332Z,29.33
2022-11-03T20:28:53.395Z,27.00
2022-11-03T20:31:22.787Z,26.53
2022-11-03T20:33:52.496Z,25.57
2022-11-03T20:36:21.553Z,28.80
2022-11-03T20:38:59.658Z,26.00
2022-11-03T20:41:31.885Z,27.60
2022-11-03T20:44:00.356Z,27.33
2022-11-03T20:46:34.914Z,28.90
2022-11-03T20:49:05.070Z,27.67
2022-11-03T20:51:36.668Z,33.83
2022-11-03T20:54:16.911Z,33.97
2022-11-03T20:56:46.171Z,30.70
2022-11-03T20:59:24.386Z,30.60
2022-11-03T21:01:52.914Z,26.33
2022-11-03T21:04:21.483Z,30.80
2022-11-03T21:06:50.879Z,29.03
2022-11-03T21:09:20.775Z,32.17
2022-11-03T21:11:49.685Z,30.27
2022-11-03T21:14:29.977Z,27.27
2022-11-03T21:17:17.481Z,28.80
2022-11-03T21:20:09.834Z,28.40
2022-11-03T21:22:58.179Z,24.93
2022-11-03T21:25:27.778Z,25.70
2022-11-03T21:27:56.237Z,23.67
2022-11-03T21:30:24.744Z,27.07
2022-11-03T21:32:53.483Z,27.33
2022-11-03T21:35:22.743Z,30.27
2022-11-03T21:37:52.429Z,28.90
2022-11-03T21:40:21.176Z,26.27
2022-11-03T21:43:08.298Z,28.67
2022-11-03T21:45:36.874Z,28.60
2022-11-03T21:48:24.571Z,29.27
2022-11-03T21:50:53.070Z,27.47
2022-11-03T21:53:21.574Z,26.17
2022-11-03T21:55:50.452Z,26.00
2022-11-03T21:58:19.693Z,25.63
2022-11-03T22:00:48.720Z,24.17
2022-11-03T22:03:17.312Z,23.73
2022-11-03T22:05:45.654Z,21.10
2022-11-03T22:08:15.331Z,22.77
2022-11-03T22:10:43.503Z,22.70
2022-11-03T22:13:12.093Z,21.13
2022-11-03T22:15:58.958Z,21.33
2022-11-03T22:18:27.358Z,22.83
2022-11-03T22:21:16.622Z,21.53
2022-11-03T22:24:13.974Z,20.00
2022-11-03T22:26:57.641Z,19.47
2022-11-03T22:29:44.315Z,19.40
2022-11-03T22:32:15.706Z,18.97
2022-11-03T22:35:03.034Z,18.20
2022-11-03T22:40:17.725Z,20.37
2022-11-03T22:43:04.533Z,19.23
2022-11-03T22:45:51.294Z,18.23
2022-11-03T22:48:19.611Z,18.23
2022-11-03T22:50:47.888Z,19.23
2022-11-03T22:53:34.279Z,18.27
2022-11-03T22:56:02.555Z,16.70
2022-11-03T22:58:30.878Z,17.13
2022-11-03T23:05:06.936Z,15.20
2022-11-03T23:07:40.853Z,15.47
2022-11-03T23:10:09.372Z,15.67
2022-11-03T23:12:37.424Z,22.33
2022-11-03T23:15:24.294Z,20.90
2022-11-03T23:18:11.008Z,25.60
2022-11-03T23:20:57.280Z,20.97
2022-11-03T23:23:44.157Z,398.33
2022-11-03T23:26:11.601Z,121.23
2022-11-03T23:28:39.684Z,117.33
2022-11-03T23:31:07.814Z,130.17
2022-11-03T23:33:36.030Z,179.17
2022-11-03T23:36:09.357Z,354.97
2022-11-03T23:38:39.857Z,348.17
2022-11-03T23:41:13.363Z,172.80
2022-11-03T23:43:43.294Z,109.33
2022-11-03T23:46:31.823Z,118.60
2022-11-03T23:49:00.251Z,68.90
2022-11-03T23:51:29.803Z,214.37
2022-11-03T23:53:59.330Z,113.43
2022-11-03T23:56:47.729Z,66.70
2022-11-03T23:59:17.364Z,50.97
